createdAt,value
2023-04-21T00:00:49.210Z,101750.53
2023-04-21T00:03:17.865Z,101745.16
2023-04-21T00:05:46.140Z,101736.31
2023-04-21T00:08:14.108Z,101742.53
2023-04-21T00:10:41.995Z,101744.59
2023-04-21T00:13:10.317Z,101741.94
2023-04-21T00:15:39.715Z,101749.47
2023-04-21T00:18:07.820Z,101744.47
2023-04-21T00:20:35.777Z,101742.88
2023-04-21T00:23:04.103Z,101742.03
2023-04-21T00:25:32.002Z,101741.69
2023-04-21T00:27:59.910Z,101740.91
2023-04-21T00:30:27.752Z,101741.91
2023-04-21T00:32:57.054Z,101736.03
2023-04-21T00:35:24.966Z,101744.72
2023-04-21T00:37:52.947Z,101732.97
2023-04-21T00:40:20.960Z,101738.22
2023-04-21T00:42:48.877Z,101729.53
2023-04-21T00:45:16.753Z,101730.03
2023-04-21T00:47:44.791Z,101735.72
2023-04-21T00:50:14.367Z,101724.47
2023-04-21T00:52:44.456Z,101722.63
2023-04-21T00:55:12.906Z,101723.91
2023-04-21T00:57:40.948Z,101723.97
2023-04-21T01:00:10.622Z,101725.69
2023-04-21T01:02:40.300Z,101723.72
2023-04-21T01:05:09.954Z,101729.63
2023-04-21T01:07:41.154Z,101722.03
2023-04-21T01:10:10.090Z,101732.75
2023-04-21T01:12:44.201Z,101722.88
2023-04-21T01:15:12.681Z,101723.75
2023-04-21T01:17:40.548Z,101731.16
2023-04-21T01:20:10.897Z,101725.66
2023-04-21T01:22:41.679Z,101729.31
2023-04-21T01:25:10.376Z,101717.47
2023-04-21T01:27:38.624Z,101716.44
2023-04-21T01:30:08.657Z,101716.47
2023-04-21T01:32:37.111Z,101713.88
2023-04-21T01:35:06.542Z,101714.00
2023-04-21T01:37:35.115Z,101706.31
2023-04-21T01:40:07.344Z,101717.66
2023-04-21T01:42:36.625Z,101699.75
2023-04-21T01:45:05.278Z,101711.84
2023-04-21T01:47:33.247Z,101713.66
2023-04-21T01:50:01.060Z,101700.84
2023-04-21T01:52:28.966Z,101709.72
2023-04-21T01:54:56.866Z,101713.84
2023-04-21T01:57:26.119Z,101708.38
2023-04-21T01:59:54.358Z,101705.84
2023-04-21T02:02:22.408Z,101708.16
2023-04-21T02:04:52.216Z,101693.41
2023-04-21T02:07:20.168Z,101697.53
2023-04-21T02:09:48.112Z,101690.94
2023-04-21T02:12:16.148Z,101694.69
2023-04-21T02:14:47.272Z,101695.63
2023-04-21T02:17:15.445Z,101700.03
2023-04-21T02:19:43.262Z,101686.47
2023-04-21T02:22:12.928Z,101701.44
2023-04-21T02:24:40.812Z,101686.47
2023-04-21T02:27:08.676Z,101690.97
2023-04-21T02:29:36.672Z,101683.34
2023-04-21T02:34:39.082Z,101686.88
2023-04-21T02:37:06.962Z,101684.91
2023-04-21T02:39:34.786Z,101691.81
2023-04-21T02:42:03.069Z,101683.22
2023-04-21T02:44:31.127Z,101689.16
2023-04-21T02:46:59.111Z,101688.66
2023-04-21T02:49:28.312Z,101686.81
2023-04-21T02:51:59.344Z,101690.56
2023-04-21T02:54:27.249Z,101687.38
2023-04-21T02:56:55.099Z,101679.97
2023-04-21T02:59:23.057Z,101681.88
2023-04-21T03:01:51.054Z,101682.03
2023-04-21T03:04:19.760Z,101682.75
2023-04-21T03:06:49.121Z,101685.59
2023-04-21T03:09:17.013Z,101677.09
2023-04-21T03:11:44.917Z,101675.66
2023-04-21T03:14:13.182Z,101671.03
2023-04-21T03:16:41.250Z,101669.84
2023-04-21T03:19:09.189Z,101679.94
2023-04-21T03:21:39.161Z,101686.53
2023-04-21T03:24:08.771Z,101674.00
2023-04-21T03:26:36.704Z,101680.84
2023-04-21T03:29:04.569Z,101678.66
2023-04-21T03:31:32.593Z,101673.75
2023-04-21T03:34:00.495Z,101684.00
2023-04-21T03:36:29.568Z,101678.22
2023-04-21T03:39:05.958Z,101678.91
2023-04-21T03:41:42.384Z,101675.34
2023-04-21T03:44:10.779Z,101682.47
2023-04-21T03:46:40.800Z,101676.34
2023-04-21T03:49:08.669Z,101678.75
2023-04-21T03:51:36.518Z,101675.00
2023-04-21T03:54:04.584Z,101676.75
2023-04-21T03:56:32.517Z,101686.28
2023-04-21T03:59:01.694Z,101685.19
2023-04-21T04:01:30.424Z,101676.88
2023-04-21T04:03:58.329Z,101688.72
2023-04-21T04:06:26.563Z,101694.19
2023-04-21T04:08:54.380Z,101693.19
2023-04-21T04:11:22.330Z,101689.97
2023-04-21T04:13:50.193Z,101693.78
2023-04-21T04:16:19.563Z,101695.13
2023-04-21T04:18:47.446Z,101698.72
2023-04-21T04:21:15.241Z,101691.91
2023-04-21T04:23:44.368Z,101700.06
2023-04-21T04:26:12.295Z,101701.19
2023-04-21T04:28:40.354Z,101707.78
2023-04-21T04:31:08.319Z,101698.28
2023-04-21T04:33:37.586Z,101705.38
2023-04-21T04:36:05.567Z,101698.13
2023-04-21T04:38:35.501Z,101698.09
2023-04-21T04:41:03.294Z,101702.38
2023-04-21T04:43:33.482Z,101705.53
2023-04-21T04:46:01.480Z,101695.50
2023-04-21T04:48:29.321Z,101698.09
2023-04-21T04:50:58.607Z,101709.53
2023-04-21T04:53:26.503Z,101706.97
2023-04-21T04:55:54.612Z,101701.16
2023-04-21T04:58:22.671Z,101706.53
2023-04-21T05:00:50.716Z,101711.03
2023-04-21T05:03:19.004Z,101707.75
2023-04-21T05:05:47.147Z,101707.88
2023-04-21T05:08:18.013Z,101708.69
2023-04-21T05:10:46.186Z,101708.56
2023-04-21T05:13:14.021Z,101707.84
2023-04-21T05:15:41.815Z,101716.38
2023-04-21T05:18:09.694Z,101716.78
2023-04-21T05:20:37.563Z,101716.50
2023-04-21T05:23:05.462Z,101710.31
2023-04-21T05:25:34.666Z,101711.56
2023-04-21T05:28:02.478Z,101706.03
2023-04-21T05:30:30.298Z,101707.75
2023-04-21T05:32:58.237Z,101706.66
2023-04-21T05:35:26.238Z,101703.91
2023-04-21T05:37:54.085Z,101707.16
2023-04-21T05:40:22.009Z,101708.34
2023-04-21T05:42:51.220Z,101703.41
2023-04-21T05:45:19.528Z,101707.13
2023-04-21T05:47:47.486Z,101699.34
2023-04-21T05:50:16.421Z,101687.44
2023-04-21T05:52:44.243Z,101681.06
2023-04-21T05:55:12.098Z,101682.50
2023-04-21T05:57:39.960Z,101698.66
2023-04-21T06:00:11.012Z,101685.66
2023-04-21T06:02:39.089Z,101691.19
2023-04-21T06:05:07.537Z,101682.06
2023-04-21T06:07:37.970Z,101685.34
2023-04-21T06:10:06.384Z,101688.81
2023-04-21T06:12:34.279Z,101694.06
2023-04-21T06:15:02.165Z,101683.69
2023-04-21T06:17:31.482Z,101688.47
2023-04-21T06:19:59.504Z,101686.34
2023-04-21T06:22:28.462Z,101694.22
2023-04-21T06:24:56.672Z,101690.03
2023-04-21T06:27:25.388Z,101680.28
2023-04-21T06:29:55.617Z,101674.28
2023-04-21T06:32:23.538Z,101677.53
2023-04-21T06:34:52.900Z,101665.84
2023-04-21T06:37:20.699Z,101669.53
2023-04-21T06:39:48.526Z,101664.63
2023-04-21T06:42:16.402Z,101667.66
2023-04-21T06:44:44.347Z,101669.72
2023-04-21T06:47:12.231Z,101672.88
2023-04-21T06:49:40.201Z,101666.97
2023-04-21T06:52:09.464Z,101664.22
2023-04-21T06:54:38.360Z,101667.84
2023-04-21T06:57:06.662Z,101663.03
2023-04-21T06:59:35.097Z,101656.25
2023-04-21T07:02:03.031Z,101658.56
2023-04-21T07:04:32.328Z,101663.13
2023-04-21T07:07:03.012Z,101659.03
2023-04-21T07:09:33.910Z,101660.72
2023-04-21T07:12:02.696Z,101659.41
2023-04-21T07:14:30.888Z,101646.09
2023-04-21T07:16:59.366Z,101643.09
2023-04-21T07:19:27.565Z,101645.41
2023-04-21T07:21:55.639Z,101642.84
2023-04-21T07:24:23.513Z,101646.22
2023-04-21T07:26:52.765Z,101648.38
2023-04-21T07:29:20.961Z,101648.31
2023-04-21T07:31:48.951Z,101649.91
2023-04-21T07:34:17.122Z,101650.25
2023-04-21T07:36:44.961Z,101637.72
2023-04-21T07:39:12.977Z,101631.13
2023-04-21T07:41:40.881Z,101638.13
2023-04-21T07:44:10.129Z,101635.50
2023-04-21T07:46:38.242Z,101641.50
2023-04-21T07:49:06.344Z,101641.84
2023-04-21T07:51:34.358Z,101638.88
2023-04-21T07:54:02.327Z,101631.16
2023-04-21T07:56:30.558Z,101640.16
2023-04-21T07:58:58.528Z,101634.31
2023-04-21T08:01:27.770Z,101638.00
2023-04-21T08:03:55.701Z,101628.53
2023-04-21T08:06:23.990Z,101642.25
2023-04-21T08:08:51.888Z,101652.00
2023-04-21T08:11:19.810Z,101645.63
2023-04-21T08:13:47.805Z,101637.44
2023-04-21T08:16:15.886Z,101638.56
2023-04-21T08:18:45.436Z,101627.59
2023-04-21T08:21:14.072Z,101629.91
2023-04-21T08:23:42.087Z,101632.34
2023-04-21T08:26:10.882Z,101618.09
2023-04-21T08:28:38.810Z,101633.28
2023-04-21T08:31:06.949Z,101625.31
2023-04-21T08:33:35.516Z,101623.16
2023-04-21T08:36:15.217Z,101621.31
2023-04-21T08:38:50.276Z,101614.59
2023-04-21T08:41:18.176Z,101614.53
2023-04-21T08:43:46.081Z,101623.13
2023-04-21T08:46:14.447Z,101618.31
2023-04-21T08:48:42.490Z,101613.41
2023-04-21T08:51:11.954Z,101612.25
2023-04-21T08:53:42.395Z,101617.66
2023-04-21T08:56:11.843Z,101609.16
2023-04-21T08:58:41.357Z,101604.66
2023-04-21T09:01:09.308Z,101616.78
2023-04-21T09:03:37.528Z,101615.09
2023-04-21T09:06:07.816Z,101612.25
2023-04-21T09:08:39.929Z,101611.09
2023-04-21T09:11:07.885Z,101610.00
2023-04-21T09:13:36.969Z,101600.91
2023-04-21T09:16:08.566Z,101605.03
2023-04-21T09:18:40.301Z,101611.94
2023-04-21T09:21:10.711Z,101609.69
2023-04-21T09:23:48.169Z,101600.88
2023-04-21T09:26:17.042Z,101607.06
2023-04-21T09:28:45.731Z,101603.88
2023-04-21T09:31:19.798Z,101598.59
2023-04-21T09:33:57.788Z,101592.06
2023-04-21T09:36:29.033Z,101591.28
2023-04-21T09:39:25.106Z,101590.31
2023-04-21T09:41:47.198Z,101585.44
2023-04-21T09:44:15.080Z,101590.53
2023-04-21T09:46:45.225Z,101586.31
2023-04-21T09:49:15.097Z,101581.44
2023-04-21T09:52:14.252Z,101596.78
2023-04-21T09:54:35.251Z,101577.53
2023-04-21T09:57:05.264Z,101582.13
2023-04-21T09:59:36.728Z,101577.84
2023-04-21T10:02:07.810Z,101578.94
2023-04-21T10:04:38.303Z,101587.69
2023-04-21T10:07:07.928Z,101572.34
2023-04-21T10:09:41.877Z,101576.22
2023-04-21T10:12:10.870Z,101587.88
2023-04-21T10:14:38.730Z,101577.31
2023-04-21T10:17:09.208Z,101571.78
2023-04-21T10:19:40.142Z,101585.31
2023-04-21T10:22:09.796Z,101584.84
2023-04-21T10:24:43.342Z,101584.97
2023-04-21T10:27:12.630Z,101569.97
2023-04-21T10:29:55.434Z,101574.28
2023-04-21T10:32:33.674Z,101562.25
2023-04-21T10:35:01.900Z,101555.38
2023-04-21T10:37:32.732Z,101567.28
2023-04-21T10:40:01.955Z,101558.41
2023-04-21T10:42:34.843Z,101558.34
2023-04-21T10:45:12.574Z,101556.44
2023-04-21T10:47:46.485Z,101549.13
2023-04-21T10:50:20.783Z,101551.41
2023-04-21T10:52:54.493Z,101557.53
2023-04-21T10:55:23.953Z,101549.38
2023-04-21T10:57:51.854Z,101546.94
2023-04-21T11:00:22.891Z,101540.72
2023-04-21T11:02:58.681Z,101541.94
2023-04-21T11:05:36.447Z,101533.75
2023-04-21T11:08:12.913Z,101522.59
2023-04-21T11:10:54.882Z,101516.13
2023-04-21T11:13:24.221Z,101518.72
2023-04-21T11:16:03.851Z,101524.34
2023-04-21T11:18:38.272Z,101516.28
2023-04-21T11:21:17.904Z,101512.72
2023-04-21T11:23:56.333Z,101512.41
2023-04-21T11:26:38.163Z,101514.25
2023-04-21T11:29:08.259Z,101510.94
2023-04-21T11:31:37.566Z,101504.75
2023-04-21T11:34:07.367Z,101499.91
2023-04-21T11:36:35.492Z,101501.72
2023-04-21T11:39:08.168Z,101507.47
2023-04-21T11:41:40.140Z,101493.66
2023-04-21T11:44:08.192Z,101502.81
2023-04-21T11:46:37.277Z,101492.78
2023-04-21T11:49:06.660Z,101481.69
2023-04-21T11:51:36.079Z,101488.41
2023-04-21T11:54:06.755Z,101488.88
2023-04-21T11:56:38.229Z,101489.94
2023-04-21T11:59:09.558Z,101487.97
2023-04-21T12:01:44.616Z,101485.94
2023-04-21T12:04:18.158Z,101489.03
2023-04-21T12:06:47.045Z,101477.78
2023-04-21T12:09:19.552Z,101467.63
2023-04-21T12:11:51.010Z,101468.94
2023-04-21T12:14:19.662Z,101471.59
2023-04-21T12:16:50.135Z,101474.00
2023-04-21T12:19:23.776Z,101469.28
2023-04-21T12:21:54.535Z,101461.63
2023-04-21T12:24:22.375Z,101471.53
2023-04-21T12:26:51.651Z,101457.50
2023-04-21T12:29:19.623Z,101467.09
2023-04-21T12:31:47.548Z,101456.50
2023-04-21T12:34:16.149Z,101462.38
2023-04-21T12:36:44.255Z,101444.97
2023-04-21T12:39:13.490Z,101454.38
2023-04-21T12:41:41.847Z,101459.25
2023-04-21T12:44:11.050Z,101442.19
2023-04-21T12:46:39.134Z,101441.22
2023-04-21T12:49:07.619Z,101451.19
2023-04-21T12:51:35.984Z,101447.19
2023-04-21T12:54:03.817Z,101459.47
2023-04-21T12:56:31.880Z,101443.13
2023-04-21T12:58:59.794Z,101431.06
2023-04-21T13:01:29.506Z,101432.50
2023-04-21T13:03:57.732Z,101427.25
2023-04-21T13:06:26.248Z,101424.91
2023-04-21T13:08:54.096Z,101426.66
2023-04-21T13:11:21.964Z,101424.19
2023-04-21T13:13:49.789Z,101427.19
2023-04-21T13:16:17.984Z,101421.66
2023-04-21T13:18:47.494Z,101414.72
2023-04-21T13:21:15.585Z,101419.66
2023-04-21T13:23:43.482Z,101413.59
2023-04-21T13:26:11.506Z,101415.59
2023-04-21T13:28:39.481Z,101403.50
2023-04-21T13:31:07.885Z,101393.56
2023-04-21T13:33:36.001Z,101393.72
2023-04-21T13:36:05.747Z,101387.75
2023-04-21T13:38:34.027Z,101388.03
2023-04-21T13:41:02.209Z,101392.63
2023-04-21T13:43:30.115Z,101398.78
2023-04-21T13:45:58.719Z,101386.03
2023-04-21T13:48:26.729Z,101380.50
2023-04-21T13:50:54.624Z,101374.84
2023-04-21T13:53:23.988Z,101380.75
2023-04-21T13:55:52.905Z,101366.59
2023-04-21T13:58:20.908Z,101358.19
2023-04-21T14:00:48.790Z,101373.44
2023-04-21T14:03:16.856Z,101370.28
2023-04-21T14:05:44.991Z,101358.59
2023-04-21T14:08:13.032Z,101356.41
2023-04-21T14:10:42.285Z,101348.72
2023-04-21T14:13:17.434Z,101348.50
2023-04-21T14:15:55.235Z,101348.78
2023-04-21T14:18:23.248Z,101344.66
2023-04-21T14:20:51.211Z,101341.97
2023-04-21T14:23:19.101Z,101343.03
2023-04-21T14:25:48.348Z,101334.50
2023-04-21T14:28:16.172Z,101335.50
2023-04-21T14:30:44.180Z,101337.06
2023-04-21T14:33:12.084Z,101327.72
2023-04-21T14:35:40.055Z,101326.91
2023-04-21T14:38:08.418Z,101317.38
2023-04-21T14:40:36.375Z,101320.50
2023-04-21T14:43:05.940Z,101319.78
2023-04-21T14:45:34.127Z,101311.34
2023-04-21T14:48:02.400Z,101304.16
2023-04-21T14:50:30.759Z,101312.63
2023-04-21T14:52:58.688Z,101306.97
2023-04-21T14:55:26.672Z,101295.75
2023-04-21T14:57:54.504Z,101300.78
2023-04-21T15:00:24.215Z,101285.94
2023-04-21T15:02:52.211Z,101293.63
2023-04-21T15:05:20.245Z,101288.03
2023-04-21T15:07:48.200Z,101286.47
2023-04-21T15:10:16.078Z,101273.91
2023-04-21T15:12:44.902Z,101291.97
2023-04-21T15:15:13.126Z,101287.13
2023-04-21T15:17:42.330Z,101287.16
2023-04-21T15:20:11.208Z,101277.97
2023-04-21T15:22:39.202Z,101276.13
2023-04-21T15:25:07.688Z,101268.56
2023-04-21T15:27:36.683Z,101270.13
2023-04-21T15:30:05.118Z,101274.09
2023-04-21T15:32:32.996Z,101261.50
2023-04-21T15:35:02.339Z,101267.53
2023-04-21T15:37:30.251Z,101257.63
2023-04-21T15:39:58.166Z,101259.53
2023-04-21T15:42:26.231Z,101261.25
2023-04-21T15:44:54.574Z,101255.34
2023-04-21T15:47:23.032Z,101258.69
2023-04-21T15:49:50.969Z,101244.56
2023-04-21T15:52:20.492Z,101247.78
2023-04-21T15:54:48.462Z,101238.16
2023-04-21T15:57:16.510Z,101245.34
2023-04-21T15:59:44.375Z,101240.50
2023-04-21T16:02:12.751Z,101246.81
2023-04-21T16:04:41.098Z,101253.09
2023-04-21T16:07:09.729Z,101239.25
2023-04-21T16:09:38.971Z,101236.56
2023-04-21T16:12:10.068Z,101225.50
2023-04-21T16:14:53.544Z,101223.59
2023-04-21T16:17:26.629Z,101221.00
2023-04-21T16:19:55.006Z,101230.75
2023-04-21T16:22:22.937Z,101225.00
2023-04-21T16:24:53.128Z,101223.97
2023-04-21T16:27:21.291Z,101212.94
2023-04-21T16:29:50.224Z,101221.66
2023-04-21T16:32:18.148Z,101212.69
2023-04-21T16:34:46.194Z,101216.03
2023-04-21T16:37:14.132Z,101220.13
2023-04-21T16:39:42.021Z,101213.25
2023-04-21T16:42:11.200Z,101211.63
2023-04-21T16:44:39.484Z,101210.50
2023-04-21T16:47:08.083Z,101218.75
2023-04-21T16:49:35.973Z,101209.69
2023-04-21T16:52:03.834Z,101203.13
2023-04-21T16:54:31.691Z,101203.69
2023-04-21T16:56:59.567Z,101196.84
2023-04-21T16:59:30.213Z,101200.53
2023-04-21T17:01:58.887Z,101202.50
2023-04-21T17:04:26.817Z,101202.22
2023-04-21T17:06:54.967Z,101205.00
2023-04-21T17:09:22.796Z,101199.59
2023-04-21T17:11:50.661Z,101203.44
2023-04-21T17:14:18.488Z,101200.84
2023-04-21T17:16:47.800Z,101200.88
2023-04-21T17:19:15.717Z,101199.00
2023-04-21T17:21:43.739Z,101203.47
2023-04-21T17:24:11.696Z,101201.97
2023-04-21T17:26:39.546Z,101204.31
2023-04-21T17:29:08.190Z,101200.59
2023-04-21T17:31:36.441Z,101199.91
2023-04-21T17:34:06.136Z,101200.94
2023-04-21T17:36:34.106Z,101206.72
2023-04-21T17:39:01.924Z,101198.22
2023-04-21T17:41:29.872Z,101201.63
2023-04-21T17:43:57.728Z,101202.63
2023-04-21T17:46:26.434Z,101203.47
2023-04-21T17:48:54.860Z,101210.06
2023-04-21T17:51:24.678Z,101198.88
2023-04-21T17:53:53.171Z,101198.38
2023-04-21T17:56:21.272Z,101194.66
2023-04-21T17:58:49.091Z,101205.34
2023-04-21T18:01:16.961Z,101199.91
2023-04-21T18:03:45.077Z,101201.44
2023-04-21T18:06:15.958Z,101196.19
2023-04-21T18:08:45.331Z,101203.31
2023-04-21T18:11:13.338Z,101206.72
2023-04-21T18:13:41.369Z,101210.06
2023-04-21T18:16:09.282Z,101209.44
2023-04-21T18:18:37.580Z,101206.94
2023-04-21T18:21:05.951Z,101216.41
2023-04-21T18:23:33.799Z,101213.88
2023-04-21T18:26:03.096Z,101209.38
2023-04-21T18:28:31.929Z,101208.03
2023-04-21T18:31:00.689Z,101197.84
2023-04-21T18:33:28.703Z,101209.63
2023-04-21T18:35:56.562Z,101216.16
2023-04-21T18:38:24.483Z,101204.72
2023-04-21T18:40:52.455Z,101214.19
2023-04-21T18:43:22.292Z,101216.75
2023-04-21T18:45:50.198Z,101210.81
2023-04-21T18:48:18.041Z,101211.13
2023-04-21T18:50:46.830Z,101206.41
2023-04-21T18:53:14.789Z,101215.16
2023-04-21T18:55:42.651Z,101206.94
2023-04-21T18:58:10.836Z,101213.50
2023-04-21T19:00:40.679Z,101214.06
2023-04-21T19:03:09.704Z,101203.31
2023-04-21T19:05:40.376Z,101211.22
2023-04-21T19:08:10.136Z,101204.13
2023-04-21T19:10:38.717Z,101209.66
2023-04-21T19:13:06.700Z,101208.22
2023-04-21T19:15:35.079Z,101196.97
2023-04-21T19:18:04.327Z,101201.53
2023-04-21T19:20:32.868Z,101205.06
2023-04-21T19:23:00.747Z,101209.31
2023-04-21T19:25:28.704Z,101209.59
2023-04-21T19:27:56.564Z,101202.78
2023-04-21T19:30:24.596Z,101206.13
2023-04-21T19:32:52.448Z,101208.41
2023-04-21T19:35:22.144Z,101206.75
2023-04-21T19:37:50.043Z,101209.03
2023-04-21T19:40:17.975Z,101203.50
2023-04-21T19:42:45.998Z,101209.84
2023-04-21T19:45:14.139Z,101199.63
2023-04-21T19:47:42.015Z,101205.72
2023-04-21T19:50:11.189Z,101208.47
2023-04-21T19:52:40.454Z,101203.44
2023-04-21T19:55:08.969Z,101205.41
2023-04-21T19:57:36.909Z,101212.81
2023-04-21T20:00:09.070Z,101210.78
2023-04-21T20:02:40.335Z,101217.56
2023-04-21T20:05:09.494Z,101209.59
2023-04-21T20:07:37.663Z,101210.69
2023-04-21T20:10:08.008Z,101216.72
2023-04-21T20:12:36.221Z,101214.56
2023-04-21T20:15:05.640Z,101221.34
2023-04-21T20:17:33.559Z,101212.09
2023-04-21T20:20:01.430Z,101216.38
2023-04-21T20:22:29.300Z,101220.50
2023-04-21T20:24:58.031Z,101214.09
2023-04-21T20:27:27.776Z,101213.44
2023-04-21T20:29:56.106Z,101221.63
2023-04-21T20:32:23.968Z,101225.97
2023-04-21T20:34:53.368Z,101223.91
2023-04-21T20:37:23.023Z,101223.84
2023-04-21T20:39:51.152Z,101218.81
2023-04-21T20:42:19.287Z,101230.53
2023-04-21T20:44:48.453Z,101223.16
2023-04-21T20:47:17.515Z,101220.88
2023-04-21T20:49:47.291Z,101228.41
2023-04-21T20:52:15.294Z,101229.13
2023-04-21T20:54:43.164Z,101226.53
2023-04-21T20:57:12.059Z,101234.00
2023-04-21T20:59:40.199Z,101232.16
2023-04-21T21:02:09.899Z,101231.50
2023-04-21T21:04:37.984Z,101231.50
2023-04-21T21:07:06.426Z,101232.25
2023-04-21T21:09:34.423Z,101232.13
2023-04-21T21:12:02.374Z,101230.31
2023-04-21T21:14:30.354Z,101229.56
2023-04-21T21:16:58.468Z,101227.28
2023-04-21T21:19:27.899Z,101226.94
2023-04-21T21:21:55.751Z,101229.59
2023-04-21T21:24:24.899Z,101236.38
2023-04-21T21:26:52.761Z,101237.22
2023-04-21T21:29:20.625Z,101238.53
2023-04-21T21:31:48.533Z,101237.00
2023-04-21T21:34:16.424Z,101244.09
2023-04-21T21:36:45.637Z,101243.41
2023-04-21T21:39:13.537Z,101230.44
2023-04-21T21:41:41.380Z,101236.81
2023-04-21T21:44:10.424Z,101244.69
2023-04-21T21:46:38.361Z,101245.38
2023-04-21T21:49:06.280Z,101238.72
2023-04-21T21:51:34.156Z,101256.94
2023-04-21T21:54:03.362Z,101246.69
2023-04-21T21:56:31.264Z,101245.97
2023-04-21T21:58:59.528Z,101238.97
2023-04-21T22:01:27.459Z,101242.97
2023-04-21T22:03:55.464Z,101254.66
2023-04-21T22:06:24.449Z,101249.81
2023-04-21T22:08:52.715Z,101242.41
2023-04-21T22:11:22.055Z,101241.31
2023-04-21T22:13:49.891Z,101253.66
2023-04-21T22:16:18.605Z,101257.06
2023-04-21T22:18:48.445Z,101243.00
2023-04-21T22:21:16.396Z,101258.06
2023-04-21T22:23:44.280Z,101250.66
2023-04-21T22:26:12.286Z,101248.22
2023-04-21T22:28:43.525Z,101247.81
2023-04-21T22:31:11.583Z,101251.38
2023-04-21T22:33:39.502Z,101251.13
2023-04-21T22:36:09.797Z,101255.22
2023-04-21T22:38:38.350Z,101253.53
2023-04-21T22:41:06.497Z,101257.19
2023-04-21T22:43:34.367Z,101257.66
2023-04-21T22:46:03.643Z,101260.31
2023-04-21T22:48:32.781Z,101269.44
2023-04-21T22:51:01.473Z,101262.34
2023-04-21T22:53:29.431Z,101265.53
2023-04-21T22:55:57.309Z,101269.13
2023-04-21T22:58:26.075Z,101270.97
2023-04-21T23:00:54.064Z,101273.94
2023-04-21T23:03:23.765Z,101266.56
2023-04-21T23:05:51.869Z,101269.09
2023-04-21T23:08:19.766Z,101276.81
2023-04-21T23:10:47.653Z,101270.25
2023-04-21T23:13:15.560Z,101264.69
2023-04-21T23:15:43.412Z,101270.19
2023-04-21T23:18:11.328Z,101264.88
2023-04-21T23:20:40.767Z,101268.50
2023-04-21T23:23:08.648Z,101273.03
2023-04-21T23:25:36.563Z,101266.06
2023-04-21T23:28:04.440Z,101269.75
2023-04-21T23:30:32.354Z,101262.66
2023-04-21T23:33:00.870Z,101268.88
2023-04-21T23:35:28.938Z,101265.06
2023-04-21T23:37:58.398Z,101269.59
2023-04-21T23:40:26.350Z,101267.63
2023-04-21T23:42:54.213Z,101258.81
2023-04-21T23:45:22.231Z,101264.78
2023-04-21T23:47:50.078Z,101269.56
2023-04-21T23:50:18.054Z,101266.56
2023-04-21T23:52:46.077Z,101254.53
2023-04-21T23:55:16.181Z,101257.75
2023-04-21T23:57:46.774Z,101250.72
